sensor_id;sensor_type;location;lat;lon;timestamp;P1;durP1;ratioP1;P2;durP2;ratioP2
38499;SDS011;24269;51.894;4.622;2022-10-16T00:01:19;5.05;;;1.50;;
38499;SDS011;24269;51.894;4.622;2022-10-16T00:03:46;5.25;;;1.45;;
38499;SDS011;24269;51.894;4.622;2022-10-16T00:06:14;6.60;;;2.17;;
38499;SDS011;24269;51.894;4.622;2022-10-16T00:08:41;7.35;;;1.60;;
38499;SDS011;24269;51.894;4.622;2022-10-16T00:11:16;4.63;;;1.55;;
38499;SDS011;24269;51.894;4.622;2022-10-16T00:13:47;7.28;;;1.90;;
38499;SDS011;24269;51.894;4.622;2022-10-16T00:16:14;4.93;;;1.77;;
38499;SDS011;24269;51.894;4.622;2022-10-16T00:18:41;4.30;;;1.30;;
38499;SDS011;24269;51.894;4.622;2022-10-16T00:21:08;8.32;;;1.60;;
38499;SDS011;24269;51.894;4.622;2022-10-16T00:23:39;4.97;;;1.48;;
38499;SDS011;24269;51.894;4.622;2022-10-16T00:26:06;6.25;;;1.80;;
38499;SDS011;24269;51.894;4.622;2022-10-16T00:28:35;3.83;;;1.33;;
38499;SDS011;24269;51.894;4.622;2022-10-16T00:31:05;4.70;;;1.40;;
38499;SDS011;24269;51.894;4.622;2022-10-16T00:33:32;2.95;;;1.40;;
38499;SDS011;24269;51.894;4.622;2022-10-16T00:35:58;4.93;;;1.98;;
38499;SDS011;24269;51.894;4.622;2022-10-16T00:38:25;5.07;;;1.70;;
38499;SDS011;24269;51.894;4.622;2022-10-16T00:40:50;6.45;;;2.13;;
38499;SDS011;24269;51.894;4.622;2022-10-16T00:43:32;5.45;;;1.60;;
38499;SDS011;24269;51.894;4.622;2022-10-16T00:48:55;5.00;;;1.60;;
38499;SDS011;24269;51.894;4.622;2022-10-16T00:54:00;5.80;;;1.95;;
38499;SDS011;24269;51.894;4.622;2022-10-16T00:56:28;4.70;;;1.70;;
38499;SDS011;24269;51.894;4.622;2022-10-16T00:58:54;5.70;;;1.65;;
38499;SDS011;24269;51.894;4.622;2022-10-16T01:01:20;5.60;;;1.98;;
38499;SDS011;24269;51.894;4.622;2022-10-16T01:03:46;4.07;;;1.80;;
38499;SDS011;24269;51.894;4.622;2022-10-16T01:06:19;5.47;;;1.80;;
38499;SDS011;24269;51.894;4.622;2022-10-16T01:11:44;4.15;;;1.83;;
38499;SDS011;24269;51.894;4.622;2022-10-16T01:14:22;4.43;;;1.90;;
38499;SDS011;24269;51.894;4.622;2022-10-16T01:17:04;4.10;;;1.50;;
38499;SDS011;24269;51.894;4.622;2022-10-16T01:19:41;4.95;;;1.73;;
38499;SDS011;24269;51.894;4.622;2022-10-16T01:22:16;4.07;;;1.50;;
38499;SDS011;24269;51.894;4.622;2022-10-16T01:24:45;3.83;;;1.80;;
38499;SDS011;24269;51.894;4.622;2022-10-16T01:29:57;4.55;;;1.90;;
38499;SDS011;24269;51.894;4.622;2022-10-16T01:32:37;4.43;;;1.92;;
38499;SDS011;24269;51.894;4.622;2022-10-16T01:35:24;6.00;;;2.10;;
38499;SDS011;24269;51.894;4.622;2022-10-16T01:38:34;4.25;;;2.10;;
38499;SDS011;24269;51.894;4.622;2022-10-16T01:40:45;4.55;;;1.85;;
38499;SDS011;24269;51.894;4.622;2022-10-16T01:43:15;6.88;;;2.20;;
38499;SDS011;24269;51.894;4.622;2022-10-16T01:45:44;5.93;;;2.22;;
38499;SDS011;24269;51.894;4.622;2022-10-16T01:48:11;5.38;;;2.05;;
38499;SDS011;24269;51.894;4.622;2022-10-16T01:50:40;4.80;;;2.40;;
38499;SDS011;24269;51.894;4.622;2022-10-16T01:53:08;4.95;;;2.28;;
38499;SDS011;24269;51.894;4.622;2022-10-16T01:55:38;3.40;;;2.10;;
38499;SDS011;24269;51.894;4.622;2022-10-16T01:58:10;4.13;;;2.10;;
38499;SDS011;24269;51.894;4.622;2022-10-16T02:00:38;6.72;;;2.00;;
38499;SDS011;24269;51.894;4.622;2022-10-16T02:03:07;5.55;;;2.30;;
38499;SDS011;24269;51.894;4.622;2022-10-16T02:05:45;6.97;;;2.38;;
38499;SDS011;24269;51.894;4.622;2022-10-16T02:08:22;6.47;;;2.25;;
38499;SDS011;24269;51.894;4.622;2022-10-16T02:10:53;4.50;;;2.20;;
38499;SDS011;24269;51.894;4.622;2022-10-16T02:13:28;5.55;;;2.30;;
38499;SDS011;24269;51.894;4.622;2022-10-16T02:15:59;7.32;;;2.38;;
38499;SDS011;24269;51.894;4.622;2022-10-16T02:18:26;4.72;;;2.05;;
38499;SDS011;24269;51.894;4.622;2022-10-16T02:20:58;4.13;;;2.00;;
38499;SDS011;24269;51.894;4.622;2022-10-16T02:23:49;3.95;;;1.85;;
38499;SDS011;24269;51.894;4.622;2022-10-16T02:26:24;3.92;;;1.80;;
38499;SDS011;24269;51.894;4.622;2022-10-16T02:28:58;5.43;;;2.15;;
38499;SDS011;24269;51.894;4.622;2022-10-16T02:31:30;4.97;;;2.30;;
38499;SDS011;24269;51.894;4.622;2022-10-16T02:33:59;4.93;;;1.80;;
38499;SDS011;24269;51.894;4.622;2022-10-16T02:36:26;4.53;;;2.00;;
38499;SDS011;24269;51.894;4.622;2022-10-16T02:38:52;3.72;;;1.58;;
38499;SDS011;24269;51.894;4.622;2022-10-16T02:41:20;5.35;;;1.77;;
38499;SDS011;24269;51.894;4.622;2022-10-16T02:43:46;4.82;;;2.08;;
38499;SDS011;24269;51.894;4.622;2022-10-16T02:46:12;5.65;;;1.85;;
38499;SDS011;24269;51.894;4.622;2022-10-16T02:48:37;6.03;;;1.63;;
38499;SDS011;24269;51.894;4.622;2022-10-16T02:51:04;5.85;;;1.83;;
38499;SDS011;24269;51.894;4.622;2022-10-16T02:53:30;4.95;;;1.70;;
38499;SDS011;24269;51.894;4.622;2022-10-16T02:55:55;4.97;;;1.67;;
38499;SDS011;24269;51.894;4.622;2022-10-16T02:58:21;4.10;;;1.70;;
38499;SDS011;24269;51.894;4.622;2022-10-16T03:00:46;3.42;;;1.50;;
38499;SDS011;24269;51.894;4.622;2022-10-16T03:03:12;5.28;;;1.83;;
38499;SDS011;24269;51.894;4.622;2022-10-16T03:05:37;6.25;;;1.50;;
38499;SDS011;24269;51.894;4.622;2022-10-16T03:08:03;4.40;;;1.60;;
38499;SDS011;24269;51.894;4.622;2022-10-16T03:10:29;6.50;;;1.65;;
38499;SDS011;24269;51.894;4.622;2022-10-16T03:12:54;5.03;;;1.20;;
38499;SDS011;24269;51.894;4.622;2022-10-16T03:15:20;3.00;;;1.30;;
38499;SDS011;24269;51.894;4.622;2022-10-16T03:17:45;2.80;;;1.40;;
38499;SDS011;24269;51.894;4.622;2022-10-16T03:20:11;5.07;;;1.70;;
38499;SDS011;24269;51.894;4.622;2022-10-16T03:22:37;4.68;;;1.60;;
38499;SDS011;24269;51.894;4.622;2022-10-16T03:25:02;4.47;;;1.20;;
38499;SDS011;24269;51.894;4.622;2022-10-16T03:27:28;5.65;;;1.60;;
38499;SDS011;24269;51.894;4.622;2022-10-16T03:29:54;4.75;;;1.60;;
38499;SDS011;24269;51.894;4.622;2022-10-16T03:32:19;4.70;;;1.40;;
38499;SDS011;24269;51.894;4.622;2022-10-16T03:34:45;8.45;;;1.50;;
38499;SDS011;24269;51.894;4.622;2022-10-16T03:37:11;4.03;;;1.60;;
38499;SDS011;24269;51.894;4.622;2022-10-16T03:39:36;5.00;;;1.70;;
38499;SDS011;24269;51.894;4.622;2022-10-16T03:42:02;3.85;;;1.60;;
38499;SDS011;24269;51.894;4.622;2022-10-16T03:44:28;4.35;;;1.60;;
38499;SDS011;24269;51.894;4.622;2022-10-16T03:46:53;7.05;;;1.90;;
38499;SDS011;24269;51.894;4.622;2022-10-16T03:49:19;5.63;;;1.85;;
38499;SDS011;24269;51.894;4.622;2022-10-16T03:51:44;3.28;;;1.48;;
38499;SDS011;24269;51.894;4.622;2022-10-16T03:54:10;3.72;;;1.67;;
38499;SDS011;24269;51.894;4.622;2022-10-16T03:56:36;4.55;;;1.70;;
38499;SDS011;24269;51.894;4.622;2022-10-16T03:59:01;4.30;;;1.48;;
38499;SDS011;24269;51.894;4.622;2022-10-16T04:01:27;4.60;;;1.70;;
38499;SDS011;24269;51.894;4.622;2022-10-16T04:03:52;3.92;;;1.83;;
38499;SDS011;24269;51.894;4.622;2022-10-16T04:06:18;4.13;;;1.95;;
38499;SDS011;24269;51.894;4.622;2022-10-16T04:08:43;6.70;;;2.00;;
38499;SDS011;24269;51.894;4.622;2022-10-16T04:11:09;5.90;;;1.92;;
38499;SDS011;24269;51.894;4.622;2022-10-16T04:13:35;6.10;;;1.70;;
38499;SDS011;24269;51.894;4.622;2022-10-16T04:16:01;7.35;;;1.67;;
38499;SDS011;24269;51.894;4.622;2022-10-16T04:18:27;5.60;;;1.85;;
38499;SDS011;24269;51.894;4.622;2022-10-16T04:20:53;3.75;;;1.75;;
38499;SDS011;24269;51.894;4.622;2022-10-16T04:23:19;3.90;;;1.83;;
38499;SDS011;24269;51.894;4.622;2022-10-16T04:25:44;5.35;;;1.80;;
38499;SDS011;24269;51.894;4.622;2022-10-16T04:28:10;5.75;;;1.95;;
38499;SDS011;24269;51.894;4.622;2022-10-16T04:30:37;5.93;;;1.70;;
38499;SDS011;24269;51.894;4.622;2022-10-16T04:33:03;5.65;;;1.70;;
38499;SDS011;24269;51.894;4.622;2022-10-16T04:35:29;5.10;;;2.00;;
38499;SDS011;24269;51.894;4.622;2022-10-16T04:37:56;6.28;;;2.00;;
38499;SDS011;24269;51.894;4.622;2022-10-16T04:40:25;3.28;;;1.70;;
38499;SDS011;24269;51.894;4.622;2022-10-16T04:42:51;5.38;;;1.85;;
38499;SDS011;24269;51.894;4.622;2022-10-16T04:45:17;6.00;;;2.13;;
38499;SDS011;24269;51.894;4.622;2022-10-16T04:47:43;7.03;;;2.15;;
38499;SDS011;24269;51.894;4.622;2022-10-16T04:50:08;5.40;;;1.70;;
38499;SDS011;24269;51.894;4.622;2022-10-16T04:52:34;5.53;;;2.00;;
38499;SDS011;24269;51.894;4.622;2022-10-16T04:54:59;4.43;;;1.70;;
38499;SDS011;24269;51.894;4.622;2022-10-16T04:57:27;5.07;;;1.83;;
38499;SDS011;24269;51.894;4.622;2022-10-16T04:59:54;4.93;;;1.90;;
38499;SDS011;24269;51.894;4.622;2022-10-16T05:02:19;4.95;;;2.10;;
38499;SDS011;24269;51.894;4.622;2022-10-16T05:04:45;4.88;;;1.88;;
38499;SDS011;24269;51.894;4.622;2022-10-16T05:07:10;5.15;;;1.90;;
38499;SDS011;24269;51.894;4.622;2022-10-16T05:09:36;5.05;;;1.90;;
38499;SDS011;24269;51.894;4.622;2022-10-16T05:12:02;6.05;;;1.95;;
38499;SDS011;24269;51.894;4.622;2022-10-16T05:14:28;7.93;;;2.05;;
38499;SDS011;24269;51.894;4.622;2022-10-16T05:16:54;6.60;;;1.80;;
38499;SDS011;24269;51.894;4.622;2022-10-16T05:19:20;6.55;;;2.00;;
38499;SDS011;24269;51.894;4.622;2022-10-16T05:21:45;4.38;;;1.90;;
38499;SDS011;24269;51.894;4.622;2022-10-16T05:24:11;7.22;;;2.15;;
38499;SDS011;24269;51.894;4.622;2022-10-16T05:26:36;4.88;;;1.95;;
38499;SDS011;24269;51.894;4.622;2022-10-16T05:29:03;5.63;;;1.80;;
38499;SDS011;24269;51.894;4.622;2022-10-16T05:31:28;7.10;;;2.08;;
38499;SDS011;24269;51.894;4.622;2022-10-16T05:33:58;7.30;;;2.20;;
38499;SDS011;24269;51.894;4.622;2022-10-16T05:36:24;7.15;;;1.90;;
38499;SDS011;24269;51.894;4.622;2022-10-16T05:38:51;7.90;;;1.92;;
38499;SDS011;24269;51.894;4.622;2022-10-16T05:41:16;7.07;;;1.90;;
38499;SDS011;24269;51.894;4.622;2022-10-16T05:43:47;6.57;;;1.83;;
38499;SDS011;24269;51.894;4.622;2022-10-16T05:46:13;7.43;;;2.45;;
38499;SDS011;24269;51.894;4.622;2022-10-16T05:48:39;5.25;;;1.95;;
38499;SDS011;24269;51.894;4.622;2022-10-16T05:51:05;6.18;;;1.95;;
38499;SDS011;24269;51.894;4.622;2022-10-16T05:53:33;4.50;;;1.95;;
38499;SDS011;24269;51.894;4.622;2022-10-16T05:56:00;6.90;;;1.90;;
38499;SDS011;24269;51.894;4.622;2022-10-16T05:58:28;9.52;;;2.20;;
38499;SDS011;24269;51.894;4.622;2022-10-16T06:00:56;7.50;;;2.30;;
38499;SDS011;24269;51.894;4.622;2022-10-16T06:03:23;6.45;;;2.00;;
38499;SDS011;24269;51.894;4.622;2022-10-16T06:05:49;6.50;;;1.90;;
38499;SDS011;24269;51.894;4.622;2022-10-16T06:08:15;5.68;;;2.08;;
38499;SDS011;24269;51.894;4.622;2022-10-16T06:10:41;8.40;;;2.13;;
38499;SDS011;24269;51.894;4.622;2022-10-16T06:13:06;4.80;;;1.70;;
38499;SDS011;24269;51.894;4.622;2022-10-16T06:15:32;7.63;;;2.60;;
38499;SDS011;24269;51.894;4.622;2022-10-16T06:17:58;7.15;;;1.52;;
38499;SDS011;24269;51.894;4.622;2022-10-16T06:20:23;7.30;;;1.42;;
38499;SDS011;24269;51.894;4.622;2022-10-16T06:22:49;10.02;;;2.00;;
38499;SDS011;24269;51.894;4.622;2022-10-16T06:25:14;5.97;;;1.60;;
38499;SDS011;24269;51.894;4.622;2022-10-16T06:27:40;5.50;;;1.58;;
38499;SDS011;24269;51.894;4.622;2022-10-16T06:30:06;6.35;;;1.60;;
38499;SDS011;24269;51.894;4.622;2022-10-16T06:32:32;7.82;;;2.00;;
38499;SDS011;24269;51.894;4.622;2022-10-16T06:34:58;7.13;;;1.77;;
38499;SDS011;24269;51.894;4.622;2022-10-16T06:37:23;7.15;;;2.22;;
38499;SDS011;24269;51.894;4.622;2022-10-16T06:39:49;6.55;;;2.00;;
38499;SDS011;24269;51.894;4.622;2022-10-16T06:42:17;8.57;;;2.10;;
38499;SDS011;24269;51.894;4.622;2022-10-16T06:44:43;8.38;;;2.10;;
38499;SDS011;24269;51.894;4.622;2022-10-16T06:47:08;7.65;;;2.10;;
38499;SDS011;24269;51.894;4.622;2022-10-16T06:49:34;5.38;;;1.90;;
38499;SDS011;24269;51.894;4.622;2022-10-16T06:52:00;6.07;;;1.90;;
38499;SDS011;24269;51.894;4.622;2022-10-16T06:54:26;6.05;;;2.20;;
38499;SDS011;24269;51.894;4.622;2022-10-16T06:56:52;7.15;;;2.30;;
38499;SDS011;24269;51.894;4.622;2022-10-16T06:59:19;5.75;;;2.13;;
38499;SDS011;24269;51.894;4.622;2022-10-16T07:01:45;7.18;;;2.10;;
38499;SDS011;24269;51.894;4.622;2022-10-16T07:04:11;7.55;;;1.92;;
38499;SDS011;24269;51.894;4.622;2022-10-16T07:06:36;7.32;;;2.30;;
38499;SDS011;24269;51.894;4.622;2022-10-16T07:09:04;7.97;;;2.50;;
38499;SDS011;24269;51.894;4.622;2022-10-16T07:11:31;10.30;;;2.80;;
38499;SDS011;24269;51.894;4.622;2022-10-16T07:13:58;9.05;;;3.50;;
38499;SDS011;24269;51.894;4.622;2022-10-16T07:16:25;6.20;;;2.60;;
38499;SDS011;24269;51.894;4.622;2022-10-16T07:18:55;7.93;;;2.97;;
38499;SDS011;24269;51.894;4.622;2022-10-16T07:21:26;6.07;;;2.40;;
38499;SDS011;24269;51.894;4.622;2022-10-16T07:23:54;11.00;;;2.40;;
38499;SDS011;24269;51.894;4.622;2022-10-16T07:26:24;13.00;;;3.70;;
38499;SDS011;24269;51.894;4.622;2022-10-16T07:28:51;10.15;;;2.70;;
38499;SDS011;24269;51.894;4.622;2022-10-16T07:31:18;8.55;;;2.30;;
38499;SDS011;24269;51.894;4.622;2022-10-16T07:33:45;8.02;;;2.60;;
38499;SDS011;24269;51.894;4.622;2022-10-16T07:36:12;9.52;;;2.30;;
38499;SDS011;24269;51.894;4.622;2022-10-16T07:38:39;8.65;;;2.42;;
38499;SDS011;24269;51.894;4.622;2022-10-16T07:41:06;7.38;;;2.33;;
38499;SDS011;24269;51.894;4.622;2022-10-16T07:43:34;7.13;;;2.40;;
38499;SDS011;24269;51.894;4.622;2022-10-16T07:45:59;7.97;;;2.30;;
38499;SDS011;24269;51.894;4.622;2022-10-16T07:48:30;11.20;;;2.40;;
38499;SDS011;24269;51.894;4.622;2022-10-16T07:51:01;7.00;;;2.00;;
38499;SDS011;24269;51.894;4.622;2022-10-16T07:53:29;7.78;;;1.50;;
38499;SDS011;24269;51.894;4.622;2022-10-16T07:55:59;10.02;;;1.92;;
38499;SDS011;24269;51.894;4.622;2022-10-16T07:58:26;8.52;;;1.80;;
38499;SDS011;24269;51.894;4.622;2022-10-16T08:00:53;8.25;;;2.00;;
38499;SDS011;24269;51.894;4.622;2022-10-16T08:03:19;9.48;;;1.65;;
38499;SDS011;24269;51.894;4.622;2022-10-16T08:05:45;8.98;;;1.50;;
38499;SDS011;24269;51.894;4.622;2022-10-16T08:08:13;9.88;;;1.60;;
38499;SDS011;24269;51.894;4.622;2022-10-16T08:10:40;8.07;;;1.63;;
38499;SDS011;24269;51.894;4.622;2022-10-16T08:13:05;8.10;;;1.92;;
38499;SDS011;24269;51.894;4.622;2022-10-16T08:15:31;8.50;;;1.80;;
38499;SDS011;24269;51.894;4.622;2022-10-16T08:17:57;7.63;;;2.03;;
38499;SDS011;24269;51.894;4.622;2022-10-16T08:20:25;7.93;;;1.40;;
38499;SDS011;24269;51.894;4.622;2022-10-16T08:22:52;10.60;;;2.60;;
38499;SDS011;24269;51.894;4.622;2022-10-16T08:25:19;9.98;;;1.92;;
38499;SDS011;24269;51.894;4.622;2022-10-16T08:27:45;9.40;;;2.00;;
38499;SDS011;24269;51.894;4.622;2022-10-16T08:30:11;7.15;;;1.73;;
38499;SDS011;24269;51.894;4.622;2022-10-16T08:32:37;9.63;;;1.63;;
38499;SDS011;24269;51.894;4.622;2022-10-16T08:35:03;8.35;;;1.80;;
38499;SDS011;24269;51.894;4.622;2022-10-16T08:37:32;7.78;;;1.75;;
38499;SDS011;24269;51.894;4.622;2022-10-16T08:39:57;7.60;;;1.98;;
38499;SDS011;24269;51.894;4.622;2022-10-16T08:50:48;8.30;;;1.98;;
38499;SDS011;24269;51.894;4.622;2022-10-16T08:53:38;12.43;;;1.75;;
38499;SDS011;24269;51.894;4.622;2022-10-16T08:56:05;9.00;;;2.10;;
38499;SDS011;24269;51.894;4.622;2022-10-16T08:58:31;10.52;;;1.90;;
38499;SDS011;24269;51.894;4.622;2022-10-16T09:00:58;10.80;;;1.95;;
38499;SDS011;24269;51.894;4.622;2022-10-16T09:03:30;7.63;;;1.70;;
38499;SDS011;24269;51.894;4.622;2022-10-16T09:17:56;7.80;;;1.70;;
38499;SDS011;24269;51.894;4.622;2022-10-16T09:23:33;9.05;;;1.83;;
38499;SDS011;24269;51.894;4.622;2022-10-16T09:26:01;10.38;;;2.13;;
38499;SDS011;24269;51.894;4.622;2022-10-16T09:28:27;8.57;;;1.70;;
38499;SDS011;24269;51.894;4.622;2022-10-16T09:30:53;11.90;;;1.80;;
38499;SDS011;24269;51.894;4.622;2022-10-16T09:33:20;9.52;;;2.00;;
38499;SDS011;24269;51.894;4.622;2022-10-16T09:35:50;9.30;;;1.83;;
38499;SDS011;24269;51.894;4.622;2022-10-16T09:38:27;7.93;;;1.75;;
38499;SDS011;24269;51.894;4.622;2022-10-16T09:41:02;9.65;;;1.52;;
38499;SDS011;24269;51.894;4.622;2022-10-16T09:46:06;11.98;;;1.88;;
38499;SDS011;24269;51.894;4.622;2022-10-16T09:48:37;12.73;;;2.00;;
38499;SDS011;24269;51.894;4.622;2022-10-16T09:51:26;13.10;;;2.33;;
38499;SDS011;24269;51.894;4.622;2022-10-16T09:56:35;10.75;;;1.95;;
38499;SDS011;24269;51.894;4.622;2022-10-16T09:59:16;10.75;;;2.08;;
38499;SDS011;24269;51.894;4.622;2022-10-16T10:03:34;12.70;;;2.72;;
38499;SDS011;24269;51.894;4.622;2022-10-16T10:14:37;10.65;;;1.75;;
38499;SDS011;24269;51.894;4.622;2022-10-16T10:19:38;11.60;;;2.00;;
38499;SDS011;24269;51.894;4.622;2022-10-16T10:27:43;11.10;;;1.80;;
38499;SDS011;24269;51.894;4.622;2022-10-16T10:33:30;12.48;;;2.40;;
38499;SDS011;24269;51.894;4.622;2022-10-16T11:00:54;8.07;;;1.80;;
38499;SDS011;24269;51.894;4.622;2022-10-16T11:11:58;11.18;;;2.25;;
38499;SDS011;24269;51.894;4.622;2022-10-16T11:22:52;11.23;;;2.33;;
38499;SDS011;24269;51.894;4.622;2022-10-16T11:25:22;9.23;;;1.77;;
38499;SDS011;24269;51.894;4.622;2022-10-16T11:28:10;10.65;;;1.80;;
38499;SDS011;24269;51.894;4.622;2022-10-16T11:30:49;9.73;;;1.77;;
38499;SDS011;24269;51.894;4.622;2022-10-16T11:36:18;13.18;;;2.03;;
38499;SDS011;24269;51.894;4.622;2022-10-16T11:47:16;10.50;;;1.95;;
38499;SDS011;24269;51.894;4.622;2022-10-16T11:49:45;14.15;;;1.95;;
38499;SDS011;24269;51.894;4.622;2022-10-16T11:57:26;13.98;;;1.83;;
38499;SDS011;24269;51.894;4.622;2022-10-16T12:00:08;12.25;;;1.90;;
38499;SDS011;24269;51.894;4.622;2022-10-16T12:02:48;10.73;;;1.77;;
38499;SDS011;24269;51.894;4.622;2022-10-16T12:08:13;12.68;;;2.13;;
38499;SDS011;24269;51.894;4.622;2022-10-16T12:10:41;9.93;;;1.75;;
38499;SDS011;24269;51.894;4.622;2022-10-16T12:16:30;12.32;;;1.65;;
38499;SDS011;24269;51.894;4.622;2022-10-16T12:18:49;9.18;;;1.50;;
38499;SDS011;24269;51.894;4.622;2022-10-16T12:21:29;13.90;;;1.88;;
38499;SDS011;24269;51.894;4.622;2022-10-16T12:23:57;13.93;;;2.10;;
38499;SDS011;24269;51.894;4.622;2022-10-16T12:26:28;10.57;;;1.80;;
38499;SDS011;24269;51.894;4.622;2022-10-16T12:29:09;10.57;;;1.70;;
38499;SDS011;24269;51.894;4.622;2022-10-16T12:31:42;9.07;;;1.65;;
38499;SDS011;24269;51.894;4.622;2022-10-16T12:34:23;11.98;;;1.95;;
38499;SDS011;24269;51.894;4.622;2022-10-16T12:37:20;12.60;;;1.80;;
38499;SDS011;24269;51.894;4.622;2022-10-16T12:39:49;14.27;;;2.13;;
38499;SDS011;24269;51.894;4.622;2022-10-16T12:44:44;13.13;;;2.00;;
38499;SDS011;24269;51.894;4.622;2022-10-16T12:47:20;12.18;;;1.98;;
38499;SDS011;24269;51.894;4.622;2022-10-16T12:50:01;11.07;;;1.60;;
38499;SDS011;24269;51.894;4.622;2022-10-16T13:00:19;12.95;;;2.10;;
38499;SDS011;24269;51.894;4.622;2022-10-16T13:14:45;18.00;;;2.72;;
38499;SDS011;24269;51.894;4.622;2022-10-16T13:28:38;13.48;;;1.80;;
38499;SDS011;24269;51.894;4.622;2022-10-16T13:31:04;9.75;;;1.60;;
38499;SDS011;24269;51.894;4.622;2022-10-16T13:33:37;12.82;;;2.13;;
38499;SDS011;24269;51.894;4.622;2022-10-16T13:36:18;10.80;;;1.88;;
38499;SDS011;24269;51.894;4.622;2022-10-16T13:38:46;11.85;;;1.88;;
38499;SDS011;24269;51.894;4.622;2022-10-16T13:41:18;12.35;;;2.20;;
38499;SDS011;24269;51.894;4.622;2022-10-16T13:43:51;13.98;;;2.45;;
38499;SDS011;24269;51.894;4.622;2022-10-16T13:46:21;11.65;;;2.13;;
38499;SDS011;24269;51.894;4.622;2022-10-16T13:48:58;10.70;;;2.40;;
38499;SDS011;24269;51.894;4.622;2022-10-16T13:51:26;12.13;;;1.83;;
38499;SDS011;24269;51.894;4.622;2022-10-16T13:53:52;12.23;;;2.00;;
38499;SDS011;24269;51.894;4.622;2022-10-16T13:56:21;11.55;;;1.95;;
38499;SDS011;24269;51.894;4.622;2022-10-16T13:59:50;11.77;;;1.80;;
38499;SDS011;24269;51.894;4.622;2022-10-16T14:01:48;14.43;;;2.40;;
38499;SDS011;24269;51.894;4.622;2022-10-16T14:04:15;7.88;;;1.52;;
38499;SDS011;24269;51.894;4.622;2022-10-16T14:06:42;10.18;;;1.65;;
38499;SDS011;24269;51.894;4.622;2022-10-16T14:11:50;8.50;;;1.90;;
38499;SDS011;24269;51.894;4.622;2022-10-16T14:14:29;13.18;;;2.03;;
38499;SDS011;24269;51.894;4.622;2022-10-16T14:17:15;10.77;;;1.85;;
38499;SDS011;24269;51.894;4.622;2022-10-16T14:19:57;11.55;;;1.70;;
38499;SDS011;24269;51.894;4.622;2022-10-16T14:22:29;12.70;;;2.00;;
38499;SDS011;24269;51.894;4.622;2022-10-16T14:25:01;14.85;;;2.03;;
38499;SDS011;24269;51.894;4.622;2022-10-16T14:30:34;11.50;;;2.03;;
38499;SDS011;24269;51.894;4.622;2022-10-16T14:33:02;13.00;;;2.13;;
38499;SDS011;24269;51.894;4.622;2022-10-16T14:35:31;10.88;;;2.30;;
38499;SDS011;24269;51.894;4.622;2022-10-16T14:37:59;11.48;;;2.13;;
38499;SDS011;24269;51.894;4.622;2022-10-16T14:40:27;12.02;;;1.90;;
38499;SDS011;24269;51.894;4.622;2022-10-16T14:43:03;10.93;;;1.90;;
38499;SDS011;24269;51.894;4.622;2022-10-16T14:45:30;13.25;;;1.95;;
38499;SDS011;24269;51.894;4.622;2022-10-16T14:48:00;11.32;;;1.90;;
38499;SDS011;24269;51.894;4.622;2022-10-16T14:50:30;9.60;;;1.33;;
38499;SDS011;24269;51.894;4.622;2022-10-16T14:52:56;12.63;;;1.92;;
38499;SDS011;24269;51.894;4.622;2022-10-16T14:55:21;14.65;;;2.03;;
38499;SDS011;24269;51.894;4.622;2022-10-16T14:57:47;12.60;;;2.40;;
38499;SDS011;24269;51.894;4.622;2022-10-16T15:00:22;12.98;;;2.08;;
38499;SDS011;24269;51.894;4.622;2022-10-16T15:02:49;13.15;;;2.20;;
38499;SDS011;24269;51.894;4.622;2022-10-16T15:05:22;9.82;;;1.65;;
38499;SDS011;24269;51.894;4.622;2022-10-16T15:07:51;13.75;;;1.92;;
38499;SDS011;24269;51.894;4.622;2022-10-16T15:10:18;11.82;;;1.88;;
38499;SDS011;24269;51.894;4.622;2022-10-16T15:12:45;12.75;;;2.10;;
38499;SDS011;24269;51.894;4.622;2022-10-16T15:18:03;11.97;;;2.70;;
38499;SDS011;24269;51.894;4.622;2022-10-16T15:20:30;12.38;;;2.75;;
38499;SDS011;24269;51.894;4.622;2022-10-16T15:23:03;14.40;;;2.70;;
38499;SDS011;24269;51.894;4.622;2022-10-16T15:28:01;15.95;;;2.55;;
38499;SDS011;24269;51.894;4.622;2022-10-16T15:30:27;15.55;;;3.08;;
38499;SDS011;24269;51.894;4.622;2022-10-16T15:32:53;20.35;;;4.18;;
38499;SDS011;24269;51.894;4.622;2022-10-16T15:35:19;20.45;;;5.28;;
38499;SDS011;24269;51.894;4.622;2022-10-16T15:37:45;27.25;;;6.72;;
38499;SDS011;24269;51.894;4.622;2022-10-16T15:40:12;16.70;;;6.25;;
38499;SDS011;24269;51.894;4.622;2022-10-16T15:42:38;17.67;;;4.80;;
38499;SDS011;24269;51.894;4.622;2022-10-16T15:45:04;12.90;;;3.38;;
38499;SDS011;24269;51.894;4.622;2022-10-16T15:47:31;12.55;;;3.25;;
38499;SDS011;24269;51.894;4.622;2022-10-16T15:49:57;12.32;;;3.20;;
38499;SDS011;24269;51.894;4.622;2022-10-16T15:52:22;15.82;;;4.38;;
38499;SDS011;24269;51.894;4.622;2022-10-16T15:54:48;21.00;;;7.10;;
38499;SDS011;24269;51.894;4.622;2022-10-16T15:57:13;19.95;;;7.22;;
38499;SDS011;24269;51.894;4.622;2022-10-16T15:59:39;20.30;;;8.77;;
38499;SDS011;24269;51.894;4.622;2022-10-16T16:02:05;22.58;;;9.85;;
38499;SDS011;24269;51.894;4.622;2022-10-16T16:04:30;25.38;;;9.18;;
38499;SDS011;24269;51.894;4.622;2022-10-16T16:06:56;21.67;;;8.82;;
38499;SDS011;24269;51.894;4.622;2022-10-16T16:09:22;20.30;;;7.90;;
38499;SDS011;24269;51.894;4.622;2022-10-16T16:11:48;16.33;;;5.45;;
38499;SDS011;24269;51.894;4.622;2022-10-16T16:14:14;14.90;;;4.28;;
38499;SDS011;24269;51.894;4.622;2022-10-16T16:16:40;12.45;;;3.47;;
38499;SDS011;24269;51.894;4.622;2022-10-16T16:19:06;12.13;;;3.10;;
38499;SDS011;24269;51.894;4.622;2022-10-16T16:21:33;13.60;;;3.60;;
38499;SDS011;24269;51.894;4.622;2022-10-16T16:23:59;17.48;;;3.72;;
38499;SDS011;24269;51.894;4.622;2022-10-16T16:26:25;14.65;;;3.40;;
38499;SDS011;24269;51.894;4.622;2022-10-16T16:28:57;11.63;;;3.00;;
38499;SDS011;24269;51.894;4.622;2022-10-16T16:31:23;17.17;;;4.10;;
38499;SDS011;24269;51.894;4.622;2022-10-16T16:33:50;19.83;;;4.72;;
38499;SDS011;24269;51.894;4.622;2022-10-16T16:36:16;18.63;;;6.53;;
38499;SDS011;24269;51.894;4.622;2022-10-16T16:38:45;18.60;;;6.05;;
38499;SDS011;24269;51.894;4.622;2022-10-16T16:41:15;18.25;;;5.10;;
38499;SDS011;24269;51.894;4.622;2022-10-16T16:43:41;14.50;;;4.22;;
38499;SDS011;24269;51.894;4.622;2022-10-16T16:46:07;13.10;;;3.40;;
38499;SDS011;24269;51.894;4.622;2022-10-16T16:48:33;13.35;;;3.90;;
38499;SDS011;24269;51.894;4.622;2022-10-16T16:51:03;15.70;;;3.75;;
38499;SDS011;24269;51.894;4.622;2022-10-16T16:53:33;16.85;;;3.85;;
38499;SDS011;24269;51.894;4.622;2022-10-16T16:56:03;15.38;;;4.00;;
38499;SDS011;24269;51.894;4.622;2022-10-16T16:58:30;16.00;;;4.28;;
38499;SDS011;24269;51.894;4.622;2022-10-16T17:00:56;17.40;;;4.10;;
38499;SDS011;24269;51.894;4.622;2022-10-16T17:03:26;21.55;;;5.07;;
38499;SDS011;24269;51.894;4.622;2022-10-16T17:05:59;17.98;;;4.65;;
38499;SDS011;24269;51.894;4.622;2022-10-16T17:08:27;12.27;;;3.88;;
38499;SDS011;24269;51.894;4.622;2022-10-16T17:10:54;11.55;;;3.83;;
38499;SDS011;24269;51.894;4.622;2022-10-16T17:13:23;20.35;;;5.13;;
38499;SDS011;24269;51.894;4.622;2022-10-16T17:15:50;20.10;;;5.07;;
38499;SDS011;24269;51.894;4.622;2022-10-16T17:18:17;15.23;;;5.38;;
38499;SDS011;24269;51.894;4.622;2022-10-16T17:20:43;14.98;;;4.85;;
38499;SDS011;24269;51.894;4.622;2022-10-16T17:23:09;18.38;;;5.38;;
38499;SDS011;24269;51.894;4.622;2022-10-16T17:25:36;18.65;;;4.68;;
38499;SDS011;24269;51.894;4.622;2022-10-16T17:28:05;20.30;;;4.70;;
38499;SDS011;24269;51.894;4.622;2022-10-16T17:30:32;13.90;;;4.22;;
38499;SDS011;24269;51.894;4.622;2022-10-16T17:32:59;18.55;;;5.28;;
38499;SDS011;24269;51.894;4.622;2022-10-16T17:35:29;20.70;;;4.07;;
38499;SDS011;24269;51.894;4.622;2022-10-16T17:37:55;12.10;;;3.70;;
38499;SDS011;24269;51.894;4.622;2022-10-16T17:40:20;19.45;;;5.47;;
38499;SDS011;24269;51.894;4.622;2022-10-16T17:42:46;18.55;;;5.07;;